sensor_id;sensor_type;location;lat;lon;timestamp;pressure;altitude;pressure_sealevel;temperature;humidity
70011;BME280;59543;37.950;-122.338;2023-04-19T00:01:34;101645.91;;;17.56;35.31
70011;BME280;59543;37.950;-122.338;2023-04-19T00:04:00;101651.88;;;17.60;36.12
70011;BME280;59543;37.950;-122.338;2023-04-19T00:06:28;101650.66;;;17.63;34.84
70011;BME280;59543;37.950;-122.338;2023-04-19T00:08:55;101646.47;;;17.27;36.13
70011;BME280;59543;37.950;-122.338;2023-04-19T00:11:23;101652.06;;;17.26;36.43
70011;BME280;59543;37.950;-122.338;2023-04-19T00:13:49;101653.75;;;17.02;37.32
70011;BME280;59543;37.950;-122.338;2023-04-19T00:16:16;101662.94;;;17.01;37.53
70011;BME280;59543;37.950;-122.338;2023-04-19T00:18:42;101666.34;;;17.03;36.80
70011;BME280;59543;37.950;-122.338;2023-04-19T00:21:08;101659.72;;;17.06;37.09
70011;BME280;59543;37.950;-122.338;2023-04-19T00:23:35;101660.31;;;16.75;37.22
70011;BME280;59543;37.950;-122.338;2023-04-19T00:26:04;101661.16;;;16.67;37.03
70011;BME280;59543;37.950;-122.338;2023-04-19T00:28:30;101655.72;;;16.67;37.89
70011;BME280;59543;37.950;-122.338;2023-04-19T00:30:56;101654.69;;;16.52;37.05
70011;BME280;59543;37.950;-122.338;2023-04-19T00:33:23;101653.88;;;16.17;37.90
70011;BME280;59543;37.950;-122.338;2023-04-19T00:35:49;101655.69;;;16.51;37.28
70011;BME280;59543;37.950;-122.338;2023-04-19T00:38:15;101661.63;;;16.46;37.51
70011;BME280;59543;37.950;-122.338;2023-04-19T00:40:41;101665.34;;;16.37;36.63
70011;BME280;59543;37.950;-122.338;2023-04-19T00:43:08;101663.09;;;16.33;36.92
70011;BME280;59543;37.950;-122.338;2023-04-19T00:45:35;101668.66;;;16.23;37.38
70011;BME280;59543;37.950;-122.338;2023-04-19T00:48:01;101679.47;;;16.07;37.16
70011;BME280;59543;37.950;-122.338;2023-04-19T00:50:28;101678.63;;;15.80;38.86
70011;BME280;59543;37.950;-122.338;2023-04-19T00:52:54;101681.94;;;15.92;34.49
70011;BME280;59543;37.950;-122.338;2023-04-19T00:55:22;101681.66;;;16.11;33.90
70011;BME280;59543;37.950;-122.338;2023-04-19T00:57:49;101686.22;;;16.03;35.68
70011;BME280;59543;37.950;-122.338;2023-04-19T01:00:17;101681.50;;;15.78;40.35
70011;BME280;59543;37.950;-122.338;2023-04-19T01:02:43;101680.13;;;15.74;39.13
70011;BME280;59543;37.950;-122.338;2023-04-19T01:05:09;101683.16;;;15.71;36.07
70011;BME280;59543;37.950;-122.338;2023-04-19T01:07:36;101687.63;;;15.81;35.67
70011;BME280;59543;37.950;-122.338;2023-04-19T01:10:02;101682.03;;;15.64;35.90
70011;BME280;59543;37.950;-122.338;2023-04-19T01:12:29;101689.66;;;15.17;35.68
70011;BME280;59543;37.950;-122.338;2023-04-19T01:14:55;101691.97;;;15.29;37.80
70011;BME280;59543;37.950;-122.338;2023-04-19T01:17:21;101689.16;;;15.39;37.14
70011;BME280;59543;37.950;-122.338;2023-04-19T01:19:48;101694.78;;;15.46;38.48
70011;BME280;59543;37.950;-122.338;2023-04-19T01:22:20;101692.00;;;15.55;37.27
70011;BME280;59543;37.950;-122.338;2023-04-19T01:24:49;101697.63;;;15.62;37.37
70011;BME280;59543;37.950;-122.338;2023-04-19T01:27:16;101699.22;;;15.47;36.19
70011;BME280;59543;37.950;-122.338;2023-04-19T01:29:43;101704.06;;;15.61;36.28
70011;BME280;59543;37.950;-122.338;2023-04-19T01:32:09;101702.69;;;15.57;36.77
70011;BME280;59543;37.950;-122.338;2023-04-19T01:34:35;101708.13;;;15.39;35.87
70011;BME280;59543;37.950;-122.338;2023-04-19T01:37:01;101705.22;;;14.97;34.67
70011;BME280;59543;37.950;-122.338;2023-04-19T01:39:27;101713.47;;;15.13;33.86
70011;BME280;59543;37.950;-122.338;2023-04-19T01:41:54;101713.25;;;14.89;33.80
70011;BME280;59543;37.950;-122.338;2023-04-19T01:44:20;101711.09;;;14.74;34.04
70011;BME280;59543;37.950;-122.338;2023-04-19T01:46:47;101711.09;;;14.74;34.44
70011;BME280;59543;37.950;-122.338;2023-04-19T01:49:13;101704.59;;;14.30;35.15
70011;BME280;59543;37.950;-122.338;2023-04-19T01:51:41;101703.16;;;14.35;35.51
70011;BME280;59543;37.950;-122.338;2023-04-19T01:54:07;101705.13;;;14.06;35.85
70011;BME280;59543;37.950;-122.338;2023-04-19T01:56:33;101700.22;;;13.82;35.93
70011;BME280;59543;37.950;-122.338;2023-04-19T01:58:59;101699.47;;;13.89;35.47
70011;BME280;59543;37.950;-122.338;2023-04-19T02:01:26;101700.50;;;13.88;35.93
70011;BME280;59543;37.950;-122.338;2023-04-19T02:03:52;101703.56;;;13.56;36.01
70011;BME280;59543;37.950;-122.338;2023-04-19T02:06:18;101706.41;;;13.55;36.51
70011;BME280;59543;37.950;-122.338;2023-04-19T02:08:44;101715.69;;;13.42;36.68
70011;BME280;59543;37.950;-122.338;2023-04-19T02:11:12;101713.09;;;13.60;36.03
70011;BME280;59543;37.950;-122.338;2023-04-19T02:13:41;101708.16;;;13.36;36.32
70011;BME280;59543;37.950;-122.338;2023-04-19T02:16:09;101711.38;;;13.11;36.68
70011;BME280;59543;37.950;-122.338;2023-04-19T02:18:35;101708.25;;;13.05;38.09
70011;BME280;59543;37.950;-122.338;2023-04-19T02:21:06;101712.78;;;12.86;38.74
70011;BME280;59543;37.950;-122.338;2023-04-19T02:23:33;101720.75;;;13.16;38.45
70011;BME280;59543;37.950;-122.338;2023-04-19T02:26:00;101720.91;;;13.05;37.65
70011;BME280;59543;37.950;-122.338;2023-04-19T02:28:30;101720.16;;;12.93;38.17
70011;BME280;59543;37.950;-122.338;2023-04-19T02:30:57;101726.84;;;12.89;38.44
70011;BME280;59543;37.950;-122.338;2023-04-19T02:33:25;101730.69;;;12.77;39.05
70011;BME280;59543;37.950;-122.338;2023-04-19T02:35:51;101729.34;;;12.52;38.88
70011;BME280;59543;37.950;-122.338;2023-04-19T02:38:18;101733.00;;;12.51;39.08
70011;BME280;59543;37.950;-122.338;2023-04-19T02:40:44;101733.88;;;12.51;42.76
70011;BME280;59543;37.950;-122.338;2023-04-19T02:43:10;101732.81;;;12.33;45.11
70011;BME280;59543;37.950;-122.338;2023-04-19T02:45:36;101741.78;;;12.33;46.27
70011;BME280;59543;37.950;-122.338;2023-04-19T02:48:03;101742.75;;;12.32;46.64
70011;BME280;59543;37.950;-122.338;2023-04-19T02:50:30;101749.88;;;12.33;48.15
70011;BME280;59543;37.950;-122.338;2023-04-19T02:52:57;101755.16;;;12.14;49.70
70011;BME280;59543;37.950;-122.338;2023-04-19T02:55:23;101752.00;;;12.09;49.85
70011;BME280;59543;37.950;-122.338;2023-04-19T02:57:49;101751.97;;;11.99;45.74
70011;BME280;59543;37.950;-122.338;2023-04-19T03:00:16;101757.75;;;11.74;44.49
70011;BME280;59543;37.950;-122.338;2023-04-19T03:02:43;101773.97;;;11.62;44.75
70011;BME280;59543;37.950;-122.338;2023-04-19T03:05:09;101769.22;;;11.55;45.24
70011;BME280;59543;37.950;-122.338;2023-04-19T03:07:36;101768.34;;;11.65;45.84
70011;BME280;59543;37.950;-122.338;2023-04-19T03:10:02;101770.97;;;11.56;46.31
70011;BME280;59543;37.950;-122.338;2023-04-19T03:12:28;101769.84;;;11.58;46.31
70011;BME280;59543;37.950;-122.338;2023-04-19T03:14:54;101779.81;;;11.47;47.42
70011;BME280;59543;37.950;-122.338;2023-04-19T03:17:21;101781.81;;;11.33;47.88
70011;BME280;59543;37.950;-122.338;2023-04-19T03:19:47;101780.13;;;11.32;47.43
70011;BME280;59543;37.950;-122.338;2023-04-19T03:22:13;101786.06;;;11.04;48.32
70011;BME280;59543;37.950;-122.338;2023-04-19T03:24:39;101792.34;;;11.04;48.65
70011;BME280;59543;37.950;-122.338;2023-04-19T03:27:05;101798.34;;;10.96;48.53
70011;BME280;59543;37.950;-122.338;2023-04-19T03:29:32;101795.91;;;10.82;47.80
70011;BME280;59543;37.950;-122.338;2023-04-19T03:31:58;101794.81;;;10.85;48.29
70011;BME280;59543;37.950;-122.338;2023-04-19T03:34:24;101800.19;;;10.85;48.85
70011;BME280;59543;37.950;-122.338;2023-04-19T03:36:50;101792.88;;;10.75;49.46
70011;BME280;59543;37.950;-122.338;2023-04-19T03:39:16;101800.59;;;10.69;50.52
70011;BME280;59543;37.950;-122.338;2023-04-19T03:41:43;101796.91;;;10.81;50.15
70011;BME280;59543;37.950;-122.338;2023-04-19T03:44:09;101806.81;;;10.81;49.29
70011;BME280;59543;37.950;-122.338;2023-04-19T03:46:35;101804.63;;;10.63;50.25
70011;BME280;59543;37.950;-122.338;2023-04-19T03:49:01;101809.75;;;10.66;50.19
70011;BME280;59543;37.950;-122.338;2023-04-19T03:51:28;101814.91;;;10.58;50.76
70011;BME280;59543;37.950;-122.338;2023-04-19T03:53:54;101822.09;;;10.46;51.57
70011;BME280;59543;37.950;-122.338;2023-04-19T03:56:20;101820.28;;;10.36;51.82
70011;BME280;59543;37.950;-122.338;2023-04-19T03:58:46;101826.25;;;10.28;52.29
70011;BME280;59543;37.950;-122.338;2023-04-19T04:01:22;101830.56;;;10.42;51.91
70011;BME280;59543;37.950;-122.338;2023-04-19T04:03:49;101831.75;;;10.38;52.47
70011;BME280;59543;37.950;-122.338;2023-04-19T04:06:15;101832.84;;;10.24;53.07
70011;BME280;59543;37.950;-122.338;2023-04-19T04:08:41;101842.84;;;10.22;53.33
70011;BME280;59543;37.950;-122.338;2023-04-19T04:11:07;101840.69;;;10.27;53.22
70011;BME280;59543;37.950;-122.338;2023-04-19T04:13:33;101852.75;;;10.21;53.95
70011;BME280;59543;37.950;-122.338;2023-04-19T04:16:00;101855.97;;;9.91;54.95
70011;BME280;59543;37.950;-122.338;2023-04-19T04:18:26;101860.31;;;10.05;54.90
70011;BME280;59543;37.950;-122.338;2023-04-19T04:20:53;101862.75;;;9.73;56.16
70011;BME280;59543;37.950;-122.338;2023-04-19T04:23:20;101862.91;;;9.82;56.02
70011;BME280;59543;37.950;-122.338;2023-04-19T04:25:59;101864.59;;;9.83;56.32
70011;BME280;59543;37.950;-122.338;2023-04-19T04:28:26;101874.50;;;9.83;57.04
70011;BME280;59543;37.950;-122.338;2023-04-19T04:30:56;101872.19;;;9.90;56.96
70011;BME280;59543;37.950;-122.338;2023-04-19T04:33:26;101881.25;;;9.89;56.82
70011;BME280;59543;37.950;-122.338;2023-04-19T04:35:53;101884.06;;;9.87;56.61
70011;BME280;59543;37.950;-122.338;2023-04-19T04:38:21;101874.75;;;9.80;58.01
70011;BME280;59543;37.950;-122.338;2023-04-19T04:40:53;101878.41;;;9.79;58.13
70011;BME280;59543;37.950;-122.338;2023-04-19T04:43:20;101878.78;;;9.85;57.88
70011;BME280;59543;37.950;-122.338;2023-04-19T04:45:47;101883.78;;;9.79;58.39
70011;BME280;59543;37.950;-122.338;2023-04-19T04:48:14;101881.44;;;9.74;59.34
70011;BME280;59543;37.950;-122.338;2023-04-19T04:50:41;101887.44;;;9.78;59.47
70011;BME280;59543;37.950;-122.338;2023-04-19T04:53:07;101883.41;;;9.72;60.08
70011;BME280;59543;37.950;-122.338;2023-04-19T04:55:34;101892.25;;;9.61;60.59
70011;BME280;59543;37.950;-122.338;2023-04-19T04:58:01;101889.91;;;9.57;61.32
70011;BME280;59543;37.950;-122.338;2023-04-19T05:00:27;101889.22;;;9.66;61.00
70011;BME280;59543;37.950;-122.338;2023-04-19T05:02:53;101891.63;;;9.58;61.48
70011;BME280;59543;37.950;-122.338;2023-04-19T05:05:19;101888.72;;;9.61;62.14
70011;BME280;59543;37.950;-122.338;2023-04-19T05:07:46;101884.34;;;9.47;62.86
70011;BME280;59543;37.950;-122.338;2023-04-19T05:10:12;101890.38;;;9.51;62.97
70011;BME280;59543;37.950;-122.338;2023-04-19T05:12:38;101884.66;;;9.55;62.27
70011;BME280;59543;37.950;-122.338;2023-04-19T05:15:05;101890.78;;;9.57;63.03
70011;BME280;59543;37.950;-122.338;2023-04-19T05:17:32;101886.53;;;9.42;64.00
70011;BME280;59543;37.950;-122.338;2023-04-19T05:19:58;101888.19;;;9.56;63.55
70011;BME280;59543;37.950;-122.338;2023-04-19T05:22:24;101887.09;;;9.58;62.79
70011;BME280;59543;37.950;-122.338;2023-04-19T05:24:51;101890.16;;;9.54;63.65
70011;BME280;59543;37.950;-122.338;2023-04-19T05:27:17;101891.31;;;9.50;63.81
70011;BME280;59543;37.950;-122.338;2023-04-19T05:29:43;101884.41;;;9.34;64.69
70011;BME280;59543;37.950;-122.338;2023-04-19T05:32:10;101892.75;;;9.43;64.86
70011;BME280;59543;37.950;-122.338;2023-04-19T05:34:36;101888.16;;;9.32;65.52
70011;BME280;59543;37.950;-122.338;2023-04-19T05:37:04;101893.91;;;9.27;65.66
70011;BME280;59543;37.950;-122.338;2023-04-19T05:39:30;101894.41;;;9.32;65.24
70011;BME280;59543;37.950;-122.338;2023-04-19T05:41:56;101886.34;;;9.32;65.61
70011;BME280;59543;37.950;-122.338;2023-04-19T05:44:23;101893.22;;;9.36;66.31
70011;BME280;59543;37.950;-122.338;2023-04-19T05:46:49;101890.59;;;9.48;65.96
70011;BME280;59543;37.950;-122.338;2023-04-19T05:49:15;101899.56;;;9.59;65.71
70011;BME280;59543;37.950;-122.338;2023-04-19T05:51:41;101886.56;;;9.77;64.82
70011;BME280;59543;37.950;-122.338;2023-04-19T05:54:08;101889.25;;;9.77;65.07
70011;BME280;59543;37.950;-122.338;2023-04-19T05:56:37;101886.09;;;9.72;65.02
70011;BME280;59543;37.950;-122.338;2023-04-19T05:59:05;101887.44;;;9.78;64.92
70011;BME280;59543;37.950;-122.338;2023-04-19T06:01:31;101890.63;;;9.83;65.11
70011;BME280;59543;37.950;-122.338;2023-04-19T06:03:57;101887.09;;;9.82;65.00
70011;BME280;59543;37.950;-122.338;2023-04-19T06:06:24;101895.66;;;9.88;64.80
70011;BME280;59543;37.950;-122.338;2023-04-19T06:08:50;101893.69;;;9.90;64.61
70011;BME280;59543;37.950;-122.338;2023-04-19T06:11:16;101892.22;;;9.85;65.25
70011;BME280;59543;37.950;-122.338;2023-04-19T06:13:42;101890.56;;;9.96;64.02
70011;BME280;59543;37.950;-122.338;2023-04-19T06:16:09;101890.91;;;9.91;64.11
70011;BME280;59543;37.950;-122.338;2023-04-19T06:18:36;101889.81;;;9.94;64.41
70011;BME280;59543;37.950;-122.338;2023-04-19T06:21:04;101893.59;;;9.91;64.89
70011;BME280;59543;37.950;-122.338;2023-04-19T06:23:30;101889.50;;;10.10;64.02
70011;BME280;59543;37.950;-122.338;2023-04-19T06:25:57;101894.66;;;10.13;64.41
70011;BME280;59543;37.950;-122.338;2023-04-19T06:28:23;101899.91;;;10.14;64.74
70011;BME280;59543;37.950;-122.338;2023-04-19T06:30:49;101897.72;;;10.19;64.37
70011;BME280;59543;37.950;-122.338;2023-04-19T06:33:16;101903.84;;;10.21;64.74
70011;BME280;59543;37.950;-122.338;2023-04-19T06:35:42;101897.09;;;10.16;65.17
70011;BME280;59543;37.950;-122.338;2023-04-19T06:38:08;101897.69;;;10.08;66.27
70011;BME280;59543;37.950;-122.338;2023-04-19T06:40:34;101899.91;;;10.25;65.69
70011;BME280;59543;37.950;-122.338;2023-04-19T06:43:00;101894.47;;;10.27;65.85
70011;BME280;59543;37.950;-122.338;2023-04-19T06:45:27;101900.59;;;10.29;65.85
70011;BME280;59543;37.950;-122.338;2023-04-19T06:47:53;101900.22;;;10.34;65.87
70011;BME280;59543;37.950;-122.338;2023-04-19T06:50:19;101899.00;;;10.38;66.43
70011;BME280;59543;37.950;-122.338;2023-04-19T06:52:46;101895.97;;;10.42;65.77
70011;BME280;59543;37.950;-122.338;2023-04-19T06:55:12;101902.47;;;10.51;66.00
70011;BME280;59543;37.950;-122.338;2023-04-19T06:57:38;101896.84;;;10.54;65.72
70011;BME280;59543;37.950;-122.338;2023-04-19T07:00:05;101891.47;;;10.54;65.43
70011;BME280;59543;37.950;-122.338;2023-04-19T07:02:32;101890.63;;;10.53;65.50
70011;BME280;59543;37.950;-122.338;2023-04-19T07:04:58;101887.53;;;10.58;65.46
70011;BME280;59543;37.950;-122.338;2023-04-19T07:07:25;101894.50;;;10.49;65.87
70011;BME280;59543;37.950;-122.338;2023-04-19T07:09:51;101901.84;;;10.47;66.18
70011;BME280;59543;37.950;-122.338;2023-04-19T07:12:18;101900.38;;;10.43;66.44
70011;BME280;59543;37.950;-122.338;2023-04-19T07:14:44;101892.56;;;10.51;66.42
70011;BME280;59543;37.950;-122.338;2023-04-19T07:17:11;101892.19;;;10.45;67.12
70011;BME280;59543;37.950;-122.338;2023-04-19T07:19:38;101895.09;;;10.30;67.43
70011;BME280;59543;37.950;-122.338;2023-04-19T07:22:04;101896.53;;;10.23;66.89
70011;BME280;59543;37.950;-122.338;2023-04-19T07:24:31;101904.00;;;10.31;66.61
70011;BME280;59543;37.950;-122.338;2023-04-19T07:26:57;101908.13;;;10.24;66.15
70011;BME280;59543;37.950;-122.338;2023-04-19T07:29:23;101901.22;;;10.44;65.45
70011;BME280;59543;37.950;-122.338;2023-04-19T07:31:49;101906.72;;;10.42;65.29
70011;BME280;59543;37.950;-122.338;2023-04-19T07:34:15;101914.19;;;10.39;65.54
70011;BME280;59543;37.950;-122.338;2023-04-19T07:36:42;101922.13;;;10.40;65.54
70011;BME280;59543;37.950;-122.338;2023-04-19T07:39:08;101924.91;;;10.27;65.96
70011;BME280;59543;37.950;-122.338;2023-04-19T07:41:34;101920.72;;;10.23;66.19
70011;BME280;59543;37.950;-122.338;2023-04-19T07:44:00;101922.72;;;10.33;65.73
70011;BME280;59543;37.950;-122.338;2023-04-19T07:46:27;101923.41;;;10.23;66.56
70011;BME280;59543;37.950;-122.338;2023-04-19T07:48:53;101920.03;;;10.33;66.26
70011;BME280;59543;37.950;-122.338;2023-04-19T07:51:19;101927.19;;;10.21;66.61
70011;BME280;59543;37.950;-122.338;2023-04-19T07:53:48;101926.81;;;10.14;67.67
70011;BME280;59543;37.950;-122.338;2023-04-19T07:56:15;101928.44;;;10.28;66.79
70011;BME280;59543;37.950;-122.338;2023-04-19T07:58:41;101926.44;;;10.19;67.13
70011;BME280;59543;37.950;-122.338;2023-04-19T08:01:07;101926.53;;;10.06;68.07
70011;BME280;59543;37.950;-122.338;2023-04-19T08:03:33;101924.69;;;10.06;67.95
70011;BME280;59543;37.950;-122.338;2023-04-19T08:06:01;101924.16;;;9.90;68.96
70011;BME280;59543;37.950;-122.338;2023-04-19T08:08:28;101926.78;;;9.79;68.89
70011;BME280;59543;37.950;-122.338;2023-04-19T08:10:54;101925.00;;;9.91;67.37
70011;BME280;59543;37.950;-122.338;2023-04-19T08:13:20;101928.94;;;9.74;67.86
70011;BME280;59543;37.950;-122.338;2023-04-19T08:15:47;101916.78;;;9.57;68.36
70011;BME280;59543;37.950;-122.338;2023-04-19T08:18:13;101917.09;;;9.52;68.30
70011;BME280;59543;37.950;-122.338;2023-04-19T08:20:39;101927.31;;;9.47;68.69
70011;BME280;59543;37.950;-122.338;2023-04-19T08:23:09;101924.19;;;9.53;68.34
70011;BME280;59543;37.950;-122.338;2023-04-19T08:25:36;101923.38;;;9.40;68.65
70011;BME280;59543;37.950;-122.338;2023-04-19T08:28:02;101910.00;;;9.27;69.95
70011;BME280;59543;37.950;-122.338;2023-04-19T08:30:28;101910.09;;;9.26;69.99
70011;BME280;59543;37.950;-122.338;2023-04-19T08:32:55;101912.78;;;9.26;69.35
70011;BME280;59543;37.950;-122.338;2023-04-19T08:35:21;101914.53;;;9.14;69.46
70011;BME280;59543;37.950;-122.338;2023-04-19T08:37:48;101914.97;;;9.08;70.21
70011;BME280;59543;37.950;-122.338;2023-04-19T08:40:14;101923.47;;;9.02;70.41
70011;BME280;59543;37.950;-122.338;2023-04-19T08:42:44;101919.75;;;8.79;71.66
70011;BME280;59543;37.950;-122.338;2023-04-19T08:45:11;101915.03;;;8.82;71.68
70011;BME280;59543;37.950;-122.338;2023-04-19T08:47:39;101918.16;;;8.76;71.89
70011;BME280;59543;37.950;-122.338;2023-04-19T08:50:06;101912.34;;;8.57;72.33
70011;BME280;59543;37.950;-122.338;2023-04-19T08:52:34;101917.06;;;8.66;71.45
70011;BME280;59543;37.950;-122.338;2023-04-19T08:55:05;101916.00;;;8.68;71.10
70011;BME280;59543;37.950;-122.338;2023-04-19T08:57:32;101919.66;;;8.55;71.56
70011;BME280;59543;37.950;-122.338;2023-04-19T09:00:00;101923.41;;;8.52;71.58
70011;BME280;59543;37.950;-122.338;2023-04-19T09:02:27;101922.44;;;8.53;71.12
70011;BME280;59543;37.950;-122.338;2023-04-19T09:04:53;101924.56;;;8.48;71.06
70011;BME280;59543;37.950;-122.338;2023-04-19T09:07:26;101924.44;;;8.37;71.51
70011;BME280;59543;37.950;-122.338;2023-04-19T09:10:10;101923.03;;;8.31;71.85
70011;BME280;59543;37.950;-122.338;2023-04-19T09:12:37;101930.09;;;8.19;71.84
70011;BME280;59543;37.950;-122.338;2023-04-19T09:15:04;101924.94;;;8.16;72.18
70011;BME280;59543;37.950;-122.338;2023-04-19T09:17:34;101921.63;;;8.13;72.50
70011;BME280;59543;37.950;-122.338;2023-04-19T09:20:00;101920.31;;;8.06;73.36
70011;BME280;59543;37.950;-122.338;2023-04-19T09:22:26;101920.56;;;8.15;72.46
70011;BME280;59543;37.950;-122.338;2023-04-19T09:24:52;101926.00;;;8.14;72.29
70011;BME280;59543;37.950;-122.338;2023-04-19T09:29:57;101931.13;;;8.04;73.29
70011;BME280;59543;37.950;-122.338;2023-04-19T09:32:24;101931.34;;;8.01;73.13
70011;BME280;59543;37.950;-122.338;2023-04-19T09:34:52;101932.63;;;7.95;73.69
70011;BME280;59543;37.950;-122.338;2023-04-19T09:37:19;101929.53;;;8.01;73.38
70011;BME280;59543;37.950;-122.338;2023-04-19T09:39:46;101931.56;;;7.98;73.69
70011;BME280;59543;37.950;-122.338;2023-04-19T09:42:12;101932.19;;;8.01;73.77
70011;BME280;59543;37.950;-122.338;2023-04-19T09:44:38;101936.25;;;7.94;74.10
70011;BME280;59543;37.950;-122.338;2023-04-19T09:47:22;101939.25;;;7.90;74.93
70011;BME280;59543;37.950;-122.338;2023-04-19T09:50:03;101944.31;;;7.94;75.16
70011;BME280;59543;37.950;-122.338;2023-04-19T09:52:32;101938.22;;;8.05;73.88
70011;BME280;59543;37.950;-122.338;2023-04-19T09:55:03;101940.31;;;8.00;74.83
70011;BME280;59543;37.950;-122.338;2023-04-19T09:57:31;101939.41;;;8.14;73.63
70011;BME280;59543;37.950;-122.338;2023-04-19T09:59:59;101936.19;;;8.09;74.18
70011;BME280;59543;37.950;-122.338;2023-04-19T10:02:30;101933.00;;;8.16;73.96
70011;BME280;59543;37.950;-122.338;2023-04-19T10:04:59;101938.00;;;8.21;73.78
70011;BME280;59543;37.950;-122.338;2023-04-19T10:07:26;101944.78;;;8.14;73.97
70011;BME280;59543;37.950;-122.338;2023-04-19T10:09:54;101940.69;;;8.21;73.51
70011;BME280;59543;37.950;-122.338;2023-04-19T10:12:25;101940.03;;;8.05;74.25
70011;BME280;59543;37.950;-122.338;2023-04-19T10:14:53;101938.53;;;8.00;74.14
70011;BME280;59543;37.950;-122.338;2023-04-19T10:17:23;101938.19;;;7.92;74.67
70011;BME280;59543;37.950;-122.338;2023-04-19T10:20:13;101929.38;;;7.90;74.35
70011;BME280;59543;37.950;-122.338;2023-04-19T10:22:42;101930.84;;;7.82;74.67
70011;BME280;59543;37.950;-122.338;2023-04-19T10:25:15;101931.25;;;7.75;74.60
70011;BME280;59543;37.950;-122.338;2023-04-19T10:27:43;101935.66;;;7.76;74.76
70011;BME280;59543;37.950;-122.338;2023-04-19T10:30:23;101933.84;;;7.77;74.61
70011;BME280;59543;37.950;-122.338;2023-04-19T10:32:59;101940.25;;;7.74;74.32
70011;BME280;59543;37.950;-122.338;2023-04-19T10:35:33;101934.25;;;7.71;74.33
70011;BME280;59543;37.950;-122.338;2023-04-19T10:40:59;101937.34;;;7.65;73.68
70011;BME280;59543;37.950;-122.338;2023-04-19T10:43:33;101939.00;;;7.53;74.07
70011;BME280;59543;37.950;-122.338;2023-04-19T10:46:08;101940.66;;;7.41;74.58
70011;BME280;59543;37.950;-122.338;2023-04-19T10:48:36;101937.84;;;7.43;74.05
70011;BME280;59543;37.950;-122.338;2023-04-19T10:51:27;101938.38;;;7.35;74.84
70011;BME280;59543;37.950;-122.338;2023-04-19T11:04:02;101949.69;;;7.12;76.01
70011;BME280;59543;37.950;-122.338;2023-04-19T11:06:29;101957.31;;;7.03;75.72
70011;BME280;59543;37.950;-122.338;2023-04-19T11:08:56;101957.22;;;6.91;75.87
70011;BME280;59543;37.950;-122.338;2023-04-19T11:11:23;101962.69;;;6.89;75.73
70011;BME280;59543;37.950;-122.338;2023-04-19T11:13:54;101964.41;;;6.90;75.27
70011;BME280;59543;37.950;-122.338;2023-04-19T11:16:22;101967.25;;;6.73;76.59
70011;BME280;59543;37.950;-122.338;2023-04-19T11:18:48;101968.13;;;6.59;76.90
70011;BME280;59543;37.950;-122.338;2023-04-19T11:21:17;101966.31;;;5.99;79.12
70011;BME280;59543;37.950;-122.338;2023-04-19T11:23:43;101972.06;;;6.07;79.78
70011;BME280;59543;37.950;-122.338;2023-04-19T11:26:12;101974.84;;;6.06;79.80
70011;BME280;59543;37.950;-122.338;2023-04-19T11:28:38;101973.38;;;5.84;80.38
70011;BME280;59543;37.950;-122.338;2023-04-19T11:31:05;101977.56;;;6.04;79.21
70011;BME280;59543;37.950;-122.338;2023-04-19T11:33:35;101978.72;;;6.00;79.78
70011;BME280;59543;37.950;-122.338;2023-04-19T11:36:02;101983.81;;;6.05;78.83
70011;BME280;59543;37.950;-122.338;2023-04-19T11:38:29;101978.22;;;5.93;79.13
70011;BME280;59543;37.950;-122.338;2023-04-19T11:41:00;101976.72;;;6.04;78.96
70011;BME280;59543;37.950;-122.338;2023-04-19T11:43:35;101981.75;;;5.94;79.31
70011;BME280;59543;37.950;-122.338;2023-04-19T11:46:09;101978.97;;;5.95;78.97
70011;BME280;59543;37.950;-122.338;2023-04-19T11:48:37;101985.00;;;5.67;79.89
70011;BME280;59543;37.950;-122.338;2023-04-19T11:51:04;101976.66;;;5.73;80.01
70011;BME280;59543;37.950;-122.338;2023-04-19T11:53:31;101985.69;;;5.71;79.79
70011;BME280;59543;37.950;-122.338;2023-04-19T11:56:06;101974.94;;;5.57;80.49
70011;BME280;59543;37.950;-122.338;2023-04-19T11:58:44;101985.88;;;5.52;80.26
70011;BME280;59543;37.950;-122.338;2023-04-19T12:01:15;101988.59;;;5.19;81.45
70011;BME280;59543;37.950;-122.338;2023-04-19T12:03:53;101987.06;;;5.15;81.80
70011;BME280;59543;37.950;-122.338;2023-04-19T12:06:28;101993.53;;;5.26;81.10
70011;BME280;59543;37.950;-122.338;2023-04-19T12:08:56;101989.91;;;5.27;81.94
70011;BME280;59543;37.950;-122.338;2023-04-19T12:11:44;101992.47;;;5.29;81.08
70011;BME280;59543;37.950;-122.338;2023-04-19T12:14:18;101996.63;;;5.35;81.43
70011;BME280;59543;37.950;-122.338;2023-04-19T12:17:09;101991.97;;;5.38;80.94
70011;BME280;59543;37.950;-122.338;2023-04-19T12:19:43;101997.63;;;5.32;81.90
70011;BME280;59543;37.950;-122.338;2023-04-19T12:22:13;101989.97;;;5.26;82.06
70011;BME280;59543;37.950;-122.338;2023-04-19T12:24:40;101997.38;;;5.21;82.06
70011;BME280;59543;37.950;-122.338;2023-04-19T12:27:07;101996.50;;;5.20;81.68
70011;BME280;59543;37.950;-122.338;2023-04-19T12:29:33;101999.44;;;5.32;81.75
70011;BME280;59543;37.950;-122.338;2023-04-19T12:32:00;102002.00;;;5.17;80.95
70011;BME280;59543;37.950;-122.338;2023-04-19T12:34:27;102007.16;;;5.04;81.44
70011;BME280;59543;37.950;-122.338;2023-04-19T12:36:54;102002.91;;;4.85;82.92
70011;BME280;59543;37.950;-122.338;2023-04-19T12:39:20;102009.78;;;4.71;83.16
70011;BME280;59543;37.950;-122.338;2023-04-19T12:41:46;102008.03;;;4.54;84.32
70011;BME280;59543;37.950;-122.338;2023-04-19T12:44:14;102018.28;;;4.62;83.69